createdAt,value
2023-03-03T00:03:09.997Z,21.18
2023-03-03T00:08:14.215Z,21.31
2023-03-03T00:13:19.696Z,21.17
2023-03-03T00:18:25.371Z,21.47
2023-03-03T00:23:40.411Z,21.82
2023-03-03T00:28:46.758Z,22.08
2023-03-03T00:33:50.577Z,22.00
2023-03-03T00:38:51.955Z,21.81
2023-03-03T00:43:53.529Z,22.20
2023-03-03T00:48:54.903Z,22.48
2023-03-03T00:53:56.709Z,22.20
2023-03-03T00:58:58.088Z,22.07
2023-03-03T01:03:59.496Z,22.08
2023-03-03T01:09:00.863Z,22.45
2023-03-03T01:14:02.291Z,22.36
2023-03-03T01:19:03.718Z,22.08
2023-03-03T01:24:05.142Z,22.43
2023-03-03T01:29:06.564Z,22.30
2023-03-03T01:34:07.966Z,22.39
2023-03-03T01:39:10.772Z,22.17
2023-03-03T01:44:14.435Z,22.29
2023-03-03T01:49:29.206Z,22.35
2023-03-03T01:54:33.796Z,22.40
2023-03-03T01:59:36.712Z,22.25
2023-03-03T02:04:38.140Z,22.22
2023-03-03T02:10:01.460Z,22.50
2023-03-03T02:15:16.018Z,22.38
2023-03-03T02:20:32.337Z,22.07
2023-03-03T02:25:58.839Z,22.14
2023-03-03T02:31:01.094Z,21.97
2023-03-03T02:36:02.469Z,21.93
2023-03-03T02:41:34.729Z,21.78
2023-03-03T02:46:37.873Z,21.81
2023-03-03T02:51:39.272Z,21.70
2023-03-03T02:56:40.651Z,21.66
2023-03-03T03:01:42.204Z,21.72
2023-03-03T03:06:44.000Z,21.72
2023-03-03T03:11:45.480Z,21.86
2023-03-03T03:16:46.909Z,21.70
2023-03-03T03:21:48.345Z,21.82
2023-03-03T03:26:49.731Z,21.69
2023-03-03T03:31:51.125Z,21.83
2023-03-03T03:36:52.522Z,21.75
2023-03-03T03:41:53.902Z,21.71
2023-03-03T03:46:55.308Z,21.55
2023-03-03T03:51:56.742Z,21.93
2023-03-03T03:56:58.144Z,21.71
2023-03-03T04:01:59.569Z,21.42
2023-03-03T04:07:01.026Z,21.49
2023-03-03T04:12:02.439Z,21.42
2023-03-03T04:17:03.800Z,21.60
2023-03-03T04:22:06.889Z,21.68
2023-03-03T04:27:11.550Z,21.38
2023-03-03T04:32:12.964Z,21.39
2023-03-03T04:37:14.364Z,21.52
2023-03-03T04:42:15.736Z,21.47
2023-03-03T04:47:17.154Z,21.41
2023-03-03T04:52:18.526Z,21.68
2023-03-03T04:57:19.917Z,21.83
2023-03-03T05:02:21.277Z,21.49
2023-03-03T05:07:22.736Z,21.54
2023-03-03T05:12:24.120Z,21.62
2023-03-03T05:17:25.500Z,21.50
2023-03-03T05:22:27.139Z,21.48
2023-03-03T05:27:28.525Z,21.34
2023-03-03T05:32:29.968Z,21.54
2023-03-03T05:37:31.407Z,21.68
2023-03-03T05:42:32.912Z,21.67
2023-03-03T05:47:34.324Z,22.48
2023-03-03T05:52:35.715Z,23.22
2023-03-03T05:57:37.102Z,24.30
2023-03-03T06:02:38.478Z,24.01
2023-03-03T06:07:39.909Z,23.77
2023-03-03T06:12:42.096Z,23.71
2023-03-03T06:17:43.509Z,23.70
2023-03-03T06:22:44.899Z,23.66
2023-03-03T06:27:46.301Z,23.41
2023-03-03T06:32:47.851Z,23.43
2023-03-03T06:37:50.677Z,23.50
2023-03-03T06:42:52.087Z,23.58
2023-03-03T06:47:53.518Z,23.12
2023-03-03T06:53:08.027Z,23.11
2023-03-03T06:58:14.818Z,23.36
2023-03-03T07:03:17.912Z,23.06
2023-03-03T07:08:20.547Z,23.03
2023-03-03T07:13:26.664Z,22.93
2023-03-03T07:18:53.456Z,23.01
2023-03-03T07:23:54.846Z,23.16
2023-03-03T07:29:00.729Z,23.12
2023-03-03T07:34:02.488Z,22.93
2023-03-03T07:39:13.420Z,22.96
2023-03-03T07:44:21.720Z,23.34
2023-03-03T07:49:23.722Z,23.04
2023-03-03T07:54:42.243Z,22.64
2023-03-03T08:00:02.864Z,22.37
2023-03-03T08:05:29.984Z,22.29
2023-03-03T08:10:31.985Z,22.22
2023-03-03T08:15:33.425Z,22.33
2023-03-03T08:20:34.689Z,22.09
2023-03-03T08:25:36.080Z,22.09
2023-03-03T08:30:37.539Z,21.83
2023-03-03T08:35:38.949Z,21.90
2023-03-03T08:40:40.444Z,21.90
2023-03-03T08:45:41.814Z,21.86
2023-03-03T08:50:43.352Z,21.87
2023-03-03T08:55:47.687Z,21.99
2023-03-03T09:00:51.208Z,21.80
2023-03-03T09:05:54.011Z,21.78
2023-03-03T09:10:55.435Z,21.84
2023-03-03T09:15:58.224Z,22.25
2023-03-03T09:20:59.634Z,22.26
2023-03-03T09:26:28.041Z,21.98
2023-03-03T09:31:41.808Z,22.10
2023-03-03T09:36:43.201Z,21.86
2023-03-03T09:42:03.338Z,21.67
2023-03-03T09:47:23.634Z,21.52
2023-03-03T09:52:51.098Z,21.53
2023-03-03T09:58:13.980Z,21.57
2023-03-03T10:03:34.118Z,21.85
2023-03-03T10:08:53.674Z,21.56
2023-03-03T10:14:14.227Z,21.46
2023-03-03T10:19:46.446Z,21.76
2023-03-03T10:25:04.746Z,22.16
2023-03-03T10:30:41.054Z,21.76
2023-03-03T10:36:06.321Z,21.51
2023-03-03T10:41:18.435Z,21.35
2023-03-03T10:46:29.088Z,21.79
2023-03-03T10:51:43.444Z,21.68
2023-03-03T10:57:08.584Z,21.62
2023-03-03T11:02:26.906Z,21.63
2023-03-03T11:07:44.849Z,22.34
2023-03-03T11:13:15.057Z,22.20
2023-03-03T11:18:42.318Z,21.93
2023-03-03T11:24:05.719Z,22.04
2023-03-03T11:29:39.506Z,22.33
2023-03-03T11:34:57.979Z,22.24
2023-03-03T11:40:02.262Z,22.52
2023-03-03T11:45:11.021Z,22.06
2023-03-03T11:50:20.593Z,21.82
2023-03-03T11:55:27.185Z,21.91
2023-03-03T12:00:52.225Z,21.75
2023-03-03T12:06:25.013Z,21.82
2023-03-03T12:11:32.353Z,21.71
2023-03-03T12:16:49.979Z,21.85
2023-03-03T12:21:58.251Z,21.66
2023-03-03T12:27:18.922Z,21.41
2023-03-03T12:32:33.050Z,21.30
2023-03-03T12:38:05.414Z,21.30
2023-03-03T12:43:27.868Z,21.43
2023-03-03T12:48:43.224Z,21.12
2023-03-03T12:54:03.260Z,20.90
2023-03-03T12:59:25.444Z,21.35
2023-03-03T13:04:35.020Z,21.34
2023-03-03T13:10:05.543Z,20.98
2023-03-03T13:16:06.158Z,21.18
2023-03-03T13:21:24.215Z,21.70
2023-03-03T13:27:15.100Z,21.89
2023-03-03T13:32:23.611Z,21.74
2023-03-03T13:37:31.241Z,21.42
2023-03-03T13:42:43.570Z,21.33
2023-03-03T13:47:59.994Z,21.58
2023-03-03T13:53:13.409Z,21.53
2023-03-03T13:58:40.846Z,21.23
2023-03-03T14:03:51.158Z,21.20
2023-03-03T14:09:10.703Z,21.06
2023-03-03T14:14:36.200Z,21.06
2023-03-03T14:19:42.905Z,21.05
2023-03-03T14:25:06.791Z,20.96
2023-03-03T14:30:36.202Z,20.85
2023-03-03T14:35:39.486Z,21.21
2023-03-03T14:40:45.354Z,21.22
2023-03-03T14:45:46.863Z,21.09
2023-03-03T14:50:58.874Z,21.10
2023-03-03T14:56:15.052Z,21.32
2023-03-03T15:01:32.928Z,21.31
2023-03-03T15:06:40.627Z,21.08
2023-03-03T15:11:42.016Z,21.05
2023-03-03T15:16:44.874Z,21.04
2023-03-03T15:22:07.547Z,21.00
2023-03-03T15:27:21.382Z,20.87
2023-03-03T15:32:34.444Z,20.68
2023-03-03T15:37:42.206Z,20.59
2023-03-03T15:42:50.385Z,20.62
2023-03-03T15:48:19.569Z,20.70
2023-03-03T15:53:58.101Z,20.90
2023-03-03T15:59:25.227Z,20.83
2023-03-03T16:04:29.435Z,20.59
2023-03-03T16:09:51.894Z,20.66
2023-03-03T16:15:26.320Z,20.64
2023-03-03T16:20:33.350Z,20.73
2023-03-03T16:25:49.757Z,20.58
2023-03-03T16:31:10.392Z,20.58
2023-03-03T16:36:21.031Z,20.55
2023-03-03T16:41:29.409Z,20.59
2023-03-03T16:46:44.827Z,20.68
2023-03-03T16:51:52.960Z,20.82
2023-03-03T16:57:28.322Z,20.60
2023-03-03T17:02:38.742Z,20.65
2023-03-03T17:07:39.994Z,20.67
2023-03-03T17:13:04.245Z,20.57
2023-03-03T17:18:05.455Z,21.05
2023-03-03T17:23:28.275Z,20.83
2023-03-03T17:28:59.846Z,20.84
2023-03-03T17:34:19.631Z,20.63
2023-03-03T17:39:45.006Z,20.89
2023-03-03T17:44:58.606Z,20.84
2023-03-03T17:50:14.965Z,20.99
2023-03-03T17:55:37.132Z,20.73
2023-03-03T18:00:43.556Z,21.07
2023-03-03T18:06:04.248Z,20.79
2023-03-03T18:11:35.080Z,20.92
2023-03-03T18:17:07.857Z,20.92
2023-03-03T18:22:22.352Z,21.01
2023-03-03T18:27:23.568Z,21.08
2023-03-03T18:32:24.998Z,20.81
2023-03-03T18:37:39.167Z,20.80
2023-03-03T18:42:41.563Z,21.18
2023-03-03T18:48:01.319Z,21.20
2023-03-03T18:53:27.316Z,21.02
2023-03-03T18:58:41.166Z,21.04
2023-03-03T19:03:46.889Z,21.05
2023-03-03T19:08:56.777Z,21.16
2023-03-03T19:14:16.927Z,21.32
2023-03-03T19:19:38.972Z,21.35
2023-03-03T19:24:40.346Z,21.21
2023-03-03T19:29:53.959Z,21.51
2023-03-03T19:35:17.531Z,21.37
2023-03-03T19:40:41.888Z,21.55
2023-03-03T19:45:57.486Z,21.53
2023-03-03T19:51:06.046Z,21.37
2023-03-03T19:56:40.123Z,21.33
2023-03-03T20:01:57.131Z,21.68
2023-03-03T20:07:23.899Z,21.71
2023-03-03T20:12:53.982Z,21.61
2023-03-03T20:18:02.859Z,21.82
2023-03-03T20:23:38.423Z,21.40
2023-03-03T20:28:45.755Z,21.51
2023-03-03T20:33:52.468Z,21.63
2023-03-03T20:39:10.266Z,21.64
2023-03-03T20:44:22.032Z,21.83
2023-03-03T20:49:47.097Z,21.48
2023-03-03T20:55:19.326Z,21.79
2023-03-03T21:00:22.700Z,21.88
2023-03-03T21:05:24.144Z,21.82
2023-03-03T21:10:27.188Z,21.62
2023-03-03T21:15:36.667Z,21.67
2023-03-03T21:20:38.139Z,21.79
2023-03-03T21:25:57.975Z,21.87
2023-03-03T21:31:15.593Z,21.81
2023-03-03T21:36:32.283Z,21.69
2023-03-03T21:41:50.786Z,21.78
2023-03-03T21:46:52.177Z,21.95
2023-03-03T21:51:54.563Z,21.83
2023-03-03T21:56:55.973Z,21.59
2023-03-03T22:01:57.390Z,21.70
2023-03-03T22:06:58.783Z,21.97
2023-03-03T22:12:00.159Z,21.91
2023-03-03T22:17:01.670Z,21.56
2023-03-03T22:22:03.045Z,21.57
2023-03-03T22:27:04.517Z,22.01
2023-03-03T22:32:06.057Z,21.98
2023-03-03T22:37:07.654Z,21.67
2023-03-03T22:42:10.047Z,21.69
2023-03-03T22:47:11.580Z,21.73
2023-03-03T22:52:13.005Z,21.86
2023-03-03T22:57:14.385Z,21.91
2023-03-03T23:02:15.772Z,21.77
2023-03-03T23:07:17.227Z,21.86
2023-03-03T23:12:18.615Z,21.99
2023-03-03T23:17:19.995Z,21.68
2023-03-03T23:22:21.415Z,21.78
2023-03-03T23:27:22.786Z,21.70
2023-03-03T23:32:24.458Z,21.83
2023-03-03T23:37:25.951Z,21.75
2023-03-03T23:42:30.750Z,21.73
2023-03-03T23:47:32.617Z,21.82
2023-03-03T23:52:34.046Z,21.76
2023-03-03T23:57:35.509Z,21.79
